sensor_id;sensor_type;location;lat;lon;timestamp;P1;durP1;ratioP1;P2;durP2;ratioP2
41115;SDS011;26861;51.824;4.682;2023-03-14T00:02:26;5.28;;;2.20;;
41115;SDS011;26861;51.824;4.682;2023-03-14T00:04:55;6.90;;;1.80;;
41115;SDS011;26861;51.824;4.682;2023-03-14T00:07:21;7.85;;;2.47;;
41115;SDS011;26861;51.824;4.682;2023-03-14T00:09:50;5.85;;;1.90;;
41115;SDS011;26861;51.824;4.682;2023-03-14T00:12:16;9.57;;;2.20;;
41115;SDS011;26861;51.824;4.682;2023-03-14T00:14:42;5.72;;;1.70;;
41115;SDS011;26861;51.824;4.682;2023-03-14T00:17:08;7.50;;;1.80;;
41115;SDS011;26861;51.824;4.682;2023-03-14T00:19:34;3.90;;;1.48;;
41115;SDS011;26861;51.824;4.682;2023-03-14T00:22:00;5.07;;;1.90;;
41115;SDS011;26861;51.824;4.682;2023-03-14T00:24:26;6.70;;;1.85;;
41115;SDS011;26861;51.824;4.682;2023-03-14T00:26:52;4.53;;;1.40;;
41115;SDS011;26861;51.824;4.682;2023-03-14T00:29:18;6.43;;;1.75;;
41115;SDS011;26861;51.824;4.682;2023-03-14T00:31:44;6.25;;;1.60;;
41115;SDS011;26861;51.824;4.682;2023-03-14T00:34:10;4.35;;;1.60;;
41115;SDS011;26861;51.824;4.682;2023-03-14T00:36:36;4.72;;;1.38;;
41115;SDS011;26861;51.824;4.682;2023-03-14T00:39:02;2.92;;;1.10;;
41115;SDS011;26861;51.824;4.682;2023-03-14T00:41:28;6.72;;;1.65;;
41115;SDS011;26861;51.824;4.682;2023-03-14T00:43:54;3.65;;;1.40;;
41115;SDS011;26861;51.824;4.682;2023-03-14T00:46:21;5.25;;;1.27;;
41115;SDS011;26861;51.824;4.682;2023-03-14T00:48:47;6.25;;;1.70;;
41115;SDS011;26861;51.824;4.682;2023-03-14T00:51:13;4.28;;;1.40;;
41115;SDS011;26861;51.824;4.682;2023-03-14T00:53:40;4.03;;;1.33;;
41115;SDS011;26861;51.824;4.682;2023-03-14T00:56:07;3.90;;;1.40;;
41115;SDS011;26861;51.824;4.682;2023-03-14T00:58:34;5.05;;;1.30;;
41115;SDS011;26861;51.824;4.682;2023-03-14T01:01:12;4.30;;;1.40;;
41115;SDS011;26861;51.824;4.682;2023-03-14T01:03:39;2.47;;;1.05;;
41115;SDS011;26861;51.824;4.682;2023-03-14T01:06:12;5.38;;;1.55;;
41115;SDS011;26861;51.824;4.682;2023-03-14T01:08:40;6.20;;;1.20;;
41115;SDS011;26861;51.824;4.682;2023-03-14T01:11:09;3.50;;;1.00;;
41115;SDS011;26861;51.824;4.682;2023-03-14T01:13:41;3.40;;;1.48;;
41115;SDS011;26861;51.824;4.682;2023-03-14T01:16:08;3.35;;;1.33;;
41115;SDS011;26861;51.824;4.682;2023-03-14T01:18:35;3.40;;;1.17;;
41115;SDS011;26861;51.824;4.682;2023-03-14T01:23:46;2.75;;;1.17;;
41115;SDS011;26861;51.824;4.682;2023-03-14T01:26:13;3.17;;;1.25;;
41115;SDS011;26861;51.824;4.682;2023-03-14T01:28:41;3.28;;;1.10;;
41115;SDS011;26861;51.824;4.682;2023-03-14T01:31:08;5.18;;;1.35;;
41115;SDS011;26861;51.824;4.682;2023-03-14T01:33:34;4.93;;;1.70;;
41115;SDS011;26861;51.824;4.682;2023-03-14T01:36:01;4.20;;;1.35;;
41115;SDS011;26861;51.824;4.682;2023-03-14T01:38:29;3.63;;;0.80;;
41115;SDS011;26861;51.824;4.682;2023-03-14T01:40:56;3.25;;;1.38;;
41115;SDS011;26861;51.824;4.682;2023-03-14T01:43:23;3.22;;;0.95;;
41115;SDS011;26861;51.824;4.682;2023-03-14T01:48:31;3.97;;;1.10;;
41115;SDS011;26861;51.824;4.682;2023-03-14T01:51:04;2.20;;;0.82;;
41115;SDS011;26861;51.824;4.682;2023-03-14T01:53:35;3.03;;;0.82;;
41115;SDS011;26861;51.824;4.682;2023-03-14T01:56:03;2.50;;;0.95;;
41115;SDS011;26861;51.824;4.682;2023-03-14T01:58:31;2.65;;;0.80;;
41115;SDS011;26861;51.824;4.682;2023-03-14T02:00:59;5.03;;;1.33;;
41115;SDS011;26861;51.824;4.682;2023-03-14T02:03:27;5.28;;;1.35;;
41115;SDS011;26861;51.824;4.682;2023-03-14T02:05:56;3.45;;;1.02;;
41115;SDS011;26861;51.824;4.682;2023-03-14T02:08:26;5.03;;;1.17;;
41115;SDS011;26861;51.824;4.682;2023-03-14T02:10:52;3.95;;;1.05;;
41115;SDS011;26861;51.824;4.682;2023-03-14T02:13:18;3.28;;;1.00;;
41115;SDS011;26861;51.824;4.682;2023-03-14T02:15:46;3.55;;;1.35;;
41115;SDS011;26861;51.824;4.682;2023-03-14T02:18:12;3.22;;;1.00;;
41115;SDS011;26861;51.824;4.682;2023-03-14T02:26:06;2.20;;;0.77;;
41115;SDS011;26861;51.824;4.682;2023-03-14T02:28:36;3.30;;;1.08;;
41115;SDS011;26861;51.824;4.682;2023-03-14T02:31:02;4.10;;;1.10;;
41115;SDS011;26861;51.824;4.682;2023-03-14T02:33:28;3.03;;;0.95;;
41115;SDS011;26861;51.824;4.682;2023-03-14T02:35:58;3.47;;;0.98;;
41115;SDS011;26861;51.824;4.682;2023-03-14T02:38:31;3.13;;;1.00;;
41115;SDS011;26861;51.824;4.682;2023-03-14T02:41:18;5.18;;;1.23;;
41115;SDS011;26861;51.824;4.682;2023-03-14T02:43:43;3.38;;;1.27;;
41115;SDS011;26861;51.824;4.682;2023-03-14T02:46:13;2.70;;;0.90;;
41115;SDS011;26861;51.824;4.682;2023-03-14T02:48:48;5.07;;;1.30;;
41115;SDS011;26861;51.824;4.682;2023-03-14T02:53:49;5.38;;;1.08;;
41115;SDS011;26861;51.824;4.682;2023-03-14T02:56:15;4.68;;;1.10;;
41115;SDS011;26861;51.824;4.682;2023-03-14T02:58:41;4.38;;;1.10;;
41115;SDS011;26861;51.824;4.682;2023-03-14T03:01:07;5.75;;;1.40;;
41115;SDS011;26861;51.824;4.682;2023-03-14T03:03:33;3.00;;;1.08;;
41115;SDS011;26861;51.824;4.682;2023-03-14T03:05:59;5.07;;;1.20;;
41115;SDS011;26861;51.824;4.682;2023-03-14T03:08:26;4.38;;;1.02;;
41115;SDS011;26861;51.824;4.682;2023-03-14T03:10:52;3.15;;;1.20;;
41115;SDS011;26861;51.824;4.682;2023-03-14T03:13:19;5.10;;;1.38;;
41115;SDS011;26861;51.824;4.682;2023-03-14T03:15:46;4.35;;;1.25;;
41115;SDS011;26861;51.824;4.682;2023-03-14T03:18:12;3.30;;;1.10;;
41115;SDS011;26861;51.824;4.682;2023-03-14T03:20:38;4.00;;;1.70;;
41115;SDS011;26861;51.824;4.682;2023-03-14T03:23:04;2.58;;;1.15;;
41115;SDS011;26861;51.824;4.682;2023-03-14T03:25:30;3.88;;;1.10;;
41115;SDS011;26861;51.824;4.682;2023-03-14T03:27:56;4.82;;;1.10;;
41115;SDS011;26861;51.824;4.682;2023-03-14T03:30:22;3.15;;;1.13;;
41115;SDS011;26861;51.824;4.682;2023-03-14T03:32:48;3.65;;;1.10;;
41115;SDS011;26861;51.824;4.682;2023-03-14T03:35:14;5.72;;;1.23;;
41115;SDS011;26861;51.824;4.682;2023-03-14T03:37:41;4.88;;;1.20;;
41115;SDS011;26861;51.824;4.682;2023-03-14T03:40:07;6.28;;;1.00;;
41115;SDS011;26861;51.824;4.682;2023-03-14T03:42:34;4.03;;;1.00;;
41115;SDS011;26861;51.824;4.682;2023-03-14T03:45:01;4.32;;;1.10;;
41115;SDS011;26861;51.824;4.682;2023-03-14T03:47:29;3.80;;;1.10;;
41115;SDS011;26861;51.824;4.682;2023-03-14T03:49:56;4.18;;;1.20;;
41115;SDS011;26861;51.824;4.682;2023-03-14T03:52:22;4.43;;;1.10;;
41115;SDS011;26861;51.824;4.682;2023-03-14T03:54:48;2.70;;;1.10;;
41115;SDS011;26861;51.824;4.682;2023-03-14T03:57:14;5.22;;;1.33;;
41115;SDS011;26861;51.824;4.682;2023-03-14T03:59:40;3.78;;;1.35;;
41115;SDS011;26861;51.824;4.682;2023-03-14T04:02:06;4.47;;;1.30;;
41115;SDS011;26861;51.824;4.682;2023-03-14T04:04:32;3.50;;;1.13;;
41115;SDS011;26861;51.824;4.682;2023-03-14T04:06:58;4.35;;;1.20;;
41115;SDS011;26861;51.824;4.682;2023-03-14T04:09:23;2.58;;;0.77;;
41115;SDS011;26861;51.824;4.682;2023-03-14T04:11:49;3.80;;;1.40;;
41115;SDS011;26861;51.824;4.682;2023-03-14T04:14:15;2.30;;;0.70;;
41115;SDS011;26861;51.824;4.682;2023-03-14T04:16:40;4.65;;;1.17;;
41115;SDS011;26861;51.824;4.682;2023-03-14T04:19:06;3.00;;;0.90;;
41115;SDS011;26861;51.824;4.682;2023-03-14T04:21:31;4.30;;;1.58;;
41115;SDS011;26861;51.824;4.682;2023-03-14T04:23:57;2.45;;;1.10;;
41115;SDS011;26861;51.824;4.682;2023-03-14T04:26:23;2.88;;;0.95;;
41115;SDS011;26861;51.824;4.682;2023-03-14T04:28:48;2.78;;;1.20;;
41115;SDS011;26861;51.824;4.682;2023-03-14T04:31:16;3.25;;;0.88;;
41115;SDS011;26861;51.824;4.682;2023-03-14T04:33:43;3.22;;;1.25;;
41115;SDS011;26861;51.824;4.682;2023-03-14T04:36:09;3.67;;;0.90;;
41115;SDS011;26861;51.824;4.682;2023-03-14T04:38:35;2.92;;;1.20;;
41115;SDS011;26861;51.824;4.682;2023-03-14T04:41:01;2.78;;;1.08;;
41115;SDS011;26861;51.824;4.682;2023-03-14T04:43:27;3.95;;;1.00;;
41115;SDS011;26861;51.824;4.682;2023-03-14T04:45:53;2.78;;;1.00;;
41115;SDS011;26861;51.824;4.682;2023-03-14T04:48:19;2.53;;;0.90;;
41115;SDS011;26861;51.824;4.682;2023-03-14T04:50:46;3.00;;;0.90;;
41115;SDS011;26861;51.824;4.682;2023-03-14T04:53:13;2.28;;;0.70;;
41115;SDS011;26861;51.824;4.682;2023-03-14T04:55:40;3.28;;;0.90;;
41115;SDS011;26861;51.824;4.682;2023-03-14T04:58:06;3.00;;;1.20;;
41115;SDS011;26861;51.824;4.682;2023-03-14T05:00:32;2.90;;;0.77;;
41115;SDS011;26861;51.824;4.682;2023-03-14T05:02:58;3.30;;;0.85;;
41115;SDS011;26861;51.824;4.682;2023-03-14T05:05:24;3.53;;;1.02;;
41115;SDS011;26861;51.824;4.682;2023-03-14T05:07:50;3.25;;;1.05;;
41115;SDS011;26861;51.824;4.682;2023-03-14T05:10:16;2.92;;;0.70;;
41115;SDS011;26861;51.824;4.682;2023-03-14T05:12:42;2.00;;;0.60;;
41115;SDS011;26861;51.824;4.682;2023-03-14T05:15:09;2.33;;;0.60;;
41115;SDS011;26861;51.824;4.682;2023-03-14T05:17:35;5.03;;;0.98;;
41115;SDS011;26861;51.824;4.682;2023-03-14T05:20:01;2.58;;;0.73;;
41115;SDS011;26861;51.824;4.682;2023-03-14T05:22:33;1.23;;;0.63;;
41115;SDS011;26861;51.824;4.682;2023-03-14T05:24:59;2.08;;;0.63;;
41115;SDS011;26861;51.824;4.682;2023-03-14T05:27:25;2.92;;;0.90;;
41115;SDS011;26861;51.824;4.682;2023-03-14T05:29:51;3.67;;;1.20;;
41115;SDS011;26861;51.824;4.682;2023-03-14T05:32:17;0.77;;;0.55;;
41115;SDS011;26861;51.824;4.682;2023-03-14T05:34:43;1.00;;;0.50;;
41115;SDS011;26861;51.824;4.682;2023-03-14T05:37:09;3.65;;;1.13;;
41115;SDS011;26861;51.824;4.682;2023-03-14T05:39:35;1.52;;;1.15;;
41115;SDS011;26861;51.824;4.682;2023-03-14T05:42:01;2.13;;;1.40;;
41115;SDS011;26861;51.824;4.682;2023-03-14T05:44:27;2.75;;;1.48;;
41115;SDS011;26861;51.824;4.682;2023-03-14T05:46:53;2.72;;;1.95;;
41115;SDS011;26861;51.824;4.682;2023-03-14T05:49:19;2.33;;;2.05;;
41115;SDS011;26861;51.824;4.682;2023-03-14T05:51:45;3.50;;;2.70;;
41115;SDS011;26861;51.824;4.682;2023-03-14T05:54:11;3.42;;;3.10;;
41115;SDS011;26861;51.824;4.682;2023-03-14T05:56:37;3.90;;;3.60;;
41115;SDS011;26861;51.824;4.682;2023-03-14T05:59:03;5.50;;;4.70;;
41115;SDS011;26861;51.824;4.682;2023-03-14T06:01:29;5.10;;;4.70;;
41115;SDS011;26861;51.824;4.682;2023-03-14T06:03:55;5.70;;;5.28;;
41115;SDS011;26861;51.824;4.682;2023-03-14T06:06:21;6.57;;;6.13;;
41115;SDS011;26861;51.824;4.682;2023-03-14T06:08:47;6.70;;;6.20;;
41115;SDS011;26861;51.824;4.682;2023-03-14T06:11:12;7.30;;;6.60;;
41115;SDS011;26861;51.824;4.682;2023-03-14T06:13:38;8.10;;;7.40;;
41115;SDS011;26861;51.824;4.682;2023-03-14T06:16:04;7.65;;;6.95;;
41115;SDS011;26861;51.824;4.682;2023-03-14T06:18:30;7.95;;;7.35;;
41115;SDS011;26861;51.824;4.682;2023-03-14T06:20:56;7.78;;;7.28;;
41115;SDS011;26861;51.824;4.682;2023-03-14T06:23:22;7.70;;;7.15;;
41115;SDS011;26861;51.824;4.682;2023-03-14T06:25:47;8.15;;;7.47;;
41115;SDS011;26861;51.824;4.682;2023-03-14T06:28:13;7.60;;;6.80;;
41115;SDS011;26861;51.824;4.682;2023-03-14T06:30:39;7.15;;;6.55;;
41115;SDS011;26861;51.824;4.682;2023-03-14T06:33:05;6.75;;;6.28;;
41115;SDS011;26861;51.824;4.682;2023-03-14T06:35:31;5.78;;;5.35;;
41115;SDS011;26861;51.824;4.682;2023-03-14T06:37:57;5.57;;;5.18;;
41115;SDS011;26861;51.824;4.682;2023-03-14T06:40:23;5.75;;;5.25;;
41115;SDS011;26861;51.824;4.682;2023-03-14T06:42:49;5.15;;;4.38;;
41115;SDS011;26861;51.824;4.682;2023-03-14T06:45:15;4.95;;;4.13;;
41115;SDS011;26861;51.824;4.682;2023-03-14T06:47:41;4.65;;;4.22;;
41115;SDS011;26861;51.824;4.682;2023-03-14T06:50:08;4.15;;;3.75;;
41115;SDS011;26861;51.824;4.682;2023-03-14T06:52:35;4.28;;;3.85;;
41115;SDS011;26861;51.824;4.682;2023-03-14T06:55:02;4.00;;;3.28;;
41115;SDS011;26861;51.824;4.682;2023-03-14T06:57:28;2.67;;;2.47;;
41115;SDS011;26861;51.824;4.682;2023-03-14T06:59:54;3.25;;;2.60;;
41115;SDS011;26861;51.824;4.682;2023-03-14T07:02:20;2.65;;;2.33;;
41115;SDS011;26861;51.824;4.682;2023-03-14T07:04:48;2.70;;;2.50;;
41115;SDS011;26861;51.824;4.682;2023-03-14T07:07:14;2.22;;;2.03;;
41115;SDS011;26861;51.824;4.682;2023-03-14T07:09:40;1.95;;;1.85;;
41115;SDS011;26861;51.824;4.682;2023-03-14T07:12:06;3.35;;;1.98;;
41115;SDS011;26861;51.824;4.682;2023-03-14T07:14:32;2.00;;;1.80;;
41115;SDS011;26861;51.824;4.682;2023-03-14T07:16:58;2.15;;;1.50;;
41115;SDS011;26861;51.824;4.682;2023-03-14T07:19:24;1.98;;;1.40;;
41115;SDS011;26861;51.824;4.682;2023-03-14T07:21:50;2.42;;;1.80;;
41115;SDS011;26861;51.824;4.682;2023-03-14T07:24:16;1.33;;;1.08;;
41115;SDS011;26861;51.824;4.682;2023-03-14T07:26:42;1.58;;;1.08;;
41115;SDS011;26861;51.824;4.682;2023-03-14T07:29:08;6.55;;;1.30;;
41115;SDS011;26861;51.824;4.682;2023-03-14T07:31:34;2.28;;;1.00;;
41115;SDS011;26861;51.824;4.682;2023-03-14T07:34:00;0.70;;;0.70;;
41115;SDS011;26861;51.824;4.682;2023-03-14T07:36:26;1.65;;;0.70;;
41115;SDS011;26861;51.824;4.682;2023-03-14T07:38:52;2.42;;;1.05;;
41115;SDS011;26861;51.824;4.682;2023-03-14T07:41:18;1.35;;;1.05;;
41115;SDS011;26861;51.824;4.682;2023-03-14T07:43:46;1.73;;;1.05;;
41115;SDS011;26861;51.824;4.682;2023-03-14T07:46:12;3.75;;;0.75;;
41115;SDS011;26861;51.824;4.682;2023-03-14T07:48:38;2.58;;;0.63;;
41115;SDS011;26861;51.824;4.682;2023-03-14T07:51:04;2.00;;;0.80;;
41115;SDS011;26861;51.824;4.682;2023-03-14T07:53:30;1.55;;;0.70;;
41115;SDS011;26861;51.824;4.682;2023-03-14T07:55:56;1.02;;;0.50;;
41115;SDS011;26861;51.824;4.682;2023-03-14T07:58:22;1.13;;;0.63;;
41115;SDS011;26861;51.824;4.682;2023-03-14T08:00:49;1.52;;;0.70;;
41115;SDS011;26861;51.824;4.682;2023-03-14T08:03:16;1.00;;;0.50;;
41115;SDS011;26861;51.824;4.682;2023-03-14T08:05:43;2.00;;;0.60;;
41115;SDS011;26861;51.824;4.682;2023-03-14T08:08:09;2.40;;;0.60;;
41115;SDS011;26861;51.824;4.682;2023-03-14T08:10:35;1.23;;;0.50;;
41115;SDS011;26861;51.824;4.682;2023-03-14T08:13:01;1.35;;;0.55;;
41115;SDS011;26861;51.824;4.682;2023-03-14T08:15:28;1.02;;;0.40;;
41115;SDS011;26861;51.824;4.682;2023-03-14T08:17:56;0.60;;;0.40;;
41115;SDS011;26861;51.824;4.682;2023-03-14T08:20:23;1.30;;;0.50;;
41115;SDS011;26861;51.824;4.682;2023-03-14T08:22:51;1.52;;;0.50;;
41115;SDS011;26861;51.824;4.682;2023-03-14T08:25:17;1.17;;;0.50;;
41115;SDS011;26861;51.824;4.682;2023-03-14T08:27:43;1.40;;;0.52;;
41115;SDS011;26861;51.824;4.682;2023-03-14T08:30:09;1.40;;;0.52;;
41115;SDS011;26861;51.824;4.682;2023-03-14T08:32:37;1.10;;;0.40;;
41115;SDS011;26861;51.824;4.682;2023-03-14T08:35:03;1.55;;;0.50;;
41115;SDS011;26861;51.824;4.682;2023-03-14T08:37:33;1.63;;;0.30;;
41115;SDS011;26861;51.824;4.682;2023-03-14T08:40:00;2.75;;;0.40;;
41115;SDS011;26861;51.824;4.682;2023-03-14T08:42:26;1.25;;;0.43;;
41115;SDS011;26861;51.824;4.682;2023-03-14T08:44:52;1.08;;;0.43;;
41115;SDS011;26861;51.824;4.682;2023-03-14T08:47:18;0.85;;;0.50;;
41115;SDS011;26861;51.824;4.682;2023-03-14T08:49:44;1.75;;;0.32;;
41115;SDS011;26861;51.824;4.682;2023-03-14T08:52:09;2.70;;;0.50;;
41115;SDS011;26861;51.824;4.682;2023-03-14T08:54:35;1.35;;;0.50;;
41115;SDS011;26861;51.824;4.682;2023-03-14T08:57:00;2.00;;;0.52;;
41115;SDS011;26861;51.824;4.682;2023-03-14T08:59:26;1.70;;;0.30;;
41115;SDS011;26861;51.824;4.682;2023-03-14T09:01:52;4.20;;;0.70;;
41115;SDS011;26861;51.824;4.682;2023-03-14T09:04:19;1.33;;;0.40;;
41115;SDS011;26861;51.824;4.682;2023-03-14T09:06:45;1.73;;;0.40;;
41115;SDS011;26861;51.824;4.682;2023-03-14T09:09:10;1.95;;;0.60;;
41115;SDS011;26861;51.824;4.682;2023-03-14T09:11:38;2.15;;;0.63;;
41115;SDS011;26861;51.824;4.682;2023-03-14T09:14:04;1.88;;;0.40;;
41115;SDS011;26861;51.824;4.682;2023-03-14T09:16:29;2.08;;;0.52;;
41115;SDS011;26861;51.824;4.682;2023-03-14T09:18:55;1.10;;;0.70;;
41115;SDS011;26861;51.824;4.682;2023-03-14T09:21:24;1.70;;;0.40;;
41115;SDS011;26861;51.824;4.682;2023-03-14T09:23:53;1.88;;;0.52;;
41115;SDS011;26861;51.824;4.682;2023-03-14T09:26:18;1.23;;;0.40;;
41115;SDS011;26861;51.824;4.682;2023-03-14T09:28:44;0.77;;;0.32;;
41115;SDS011;26861;51.824;4.682;2023-03-14T09:31:11;2.55;;;0.52;;
41115;SDS011;26861;51.824;4.682;2023-03-14T09:33:37;0.98;;;0.50;;
41115;SDS011;26861;51.824;4.682;2023-03-14T09:36:03;0.70;;;0.45;;
41115;SDS011;26861;51.824;4.682;2023-03-14T09:38:29;1.63;;;0.30;;
41115;SDS011;26861;51.824;4.682;2023-03-14T09:40:58;1.90;;;0.43;;
41115;SDS011;26861;51.824;4.682;2023-03-14T09:43:26;1.15;;;0.40;;
41115;SDS011;26861;51.824;4.682;2023-03-14T09:45:56;2.35;;;0.60;;
41115;SDS011;26861;51.824;4.682;2023-03-14T09:48:29;2.55;;;0.70;;
41115;SDS011;26861;51.824;4.682;2023-03-14T09:50:57;1.73;;;0.80;;
41115;SDS011;26861;51.824;4.682;2023-03-14T09:53:28;3.58;;;0.80;;
41115;SDS011;26861;51.824;4.682;2023-03-14T09:56:20;2.72;;;0.60;;
41115;SDS011;26861;51.824;4.682;2023-03-14T09:58:56;2.53;;;0.68;;
41115;SDS011;26861;51.824;4.682;2023-03-14T10:01:26;0.90;;;0.60;;
41115;SDS011;26861;51.824;4.682;2023-03-14T10:03:54;2.90;;;0.68;;
41115;SDS011;26861;51.824;4.682;2023-03-14T10:06:22;2.53;;;0.80;;
41115;SDS011;26861;51.824;4.682;2023-03-14T10:08:52;2.55;;;0.70;;
41115;SDS011;26861;51.824;4.682;2023-03-14T10:11:19;3.40;;;1.00;;
41115;SDS011;26861;51.824;4.682;2023-03-14T10:13:50;3.38;;;0.68;;
41115;SDS011;26861;51.824;4.682;2023-03-14T10:16:43;2.15;;;0.60;;
41115;SDS011;26861;51.824;4.682;2023-03-14T10:19:11;2.33;;;0.80;;
41115;SDS011;26861;51.824;4.682;2023-03-14T10:21:40;1.95;;;0.80;;
41115;SDS011;26861;51.824;4.682;2023-03-14T10:24:09;1.85;;;0.55;;
41115;SDS011;26861;51.824;4.682;2023-03-14T10:26:53;4.93;;;0.90;;
41115;SDS011;26861;51.824;4.682;2023-03-14T10:29:20;3.55;;;1.20;;
41115;SDS011;26861;51.824;4.682;2023-03-14T10:31:51;2.33;;;0.57;;
41115;SDS011;26861;51.824;4.682;2023-03-14T10:34:21;3.08;;;0.80;;
41115;SDS011;26861;51.824;4.682;2023-03-14T10:39:33;2.13;;;0.68;;
41115;SDS011;26861;51.824;4.682;2023-03-14T10:44:56;3.13;;;0.90;;
41115;SDS011;26861;51.824;4.682;2023-03-14T10:47:25;3.03;;;1.00;;
41115;SDS011;26861;51.824;4.682;2023-03-14T10:49:53;4.65;;;1.48;;
41115;SDS011;26861;51.824;4.682;2023-03-14T10:54:58;4.40;;;1.38;;
41115;SDS011;26861;51.824;4.682;2023-03-14T10:57:26;3.28;;;1.05;;
41115;SDS011;26861;51.824;4.682;2023-03-14T10:59:53;4.00;;;1.20;;
41115;SDS011;26861;51.824;4.682;2023-03-14T11:02:31;4.33;;;1.13;;
41115;SDS011;26861;51.824;4.682;2023-03-14T11:07:46;7.53;;;1.40;;
41115;SDS011;26861;51.824;4.682;2023-03-14T11:10:26;5.03;;;1.10;;
41115;SDS011;26861;51.824;4.682;2023-03-14T11:27:18;3.88;;;1.42;;
41115;SDS011;26861;51.824;4.682;2023-03-14T11:37:52;7.18;;;1.92;;
41115;SDS011;26861;51.824;4.682;2023-03-14T11:40:45;7.57;;;1.80;;
41115;SDS011;26861;51.824;4.682;2023-03-14T11:43:19;3.97;;;1.25;;
41115;SDS011;26861;51.824;4.682;2023-03-14T11:45:52;5.50;;;1.52;;
41115;SDS011;26861;51.824;4.682;2023-03-14T11:51:05;5.28;;;1.88;;
41115;SDS011;26861;51.824;4.682;2023-03-14T12:13:15;5.03;;;1.33;;
41115;SDS011;26861;51.824;4.682;2023-03-14T12:15:55;5.95;;;1.67;;
41115;SDS011;26861;51.824;4.682;2023-03-14T12:20:54;5.72;;;1.10;;
41115;SDS011;26861;51.824;4.682;2023-03-14T12:23:23;5.45;;;1.42;;
41115;SDS011;26861;51.824;4.682;2023-03-14T12:29:14;5.05;;;1.60;;
41115;SDS011;26861;51.824;4.682;2023-03-14T12:31:42;8.48;;;1.58;;
41115;SDS011;26861;51.824;4.682;2023-03-14T12:47:41;4.72;;;1.38;;
41115;SDS011;26861;51.824;4.682;2023-03-14T12:50:18;4.65;;;1.42;;
41115;SDS011;26861;51.824;4.682;2023-03-14T12:52:59;3.55;;;1.38;;
41115;SDS011;26861;51.824;4.682;2023-03-14T12:55:47;5.47;;;1.23;;
41115;SDS011;26861;51.824;4.682;2023-03-14T12:58:38;5.32;;;1.17;;
41115;SDS011;26861;51.824;4.682;2023-03-14T13:01:23;5.97;;;1.20;;
41115;SDS011;26861;51.824;4.682;2023-03-14T13:03:51;4.90;;;0.98;;
41115;SDS011;26861;51.824;4.682;2023-03-14T13:14:32;4.53;;;1.50;;
41115;SDS011;26861;51.824;4.682;2023-03-14T13:16:59;5.28;;;1.10;;
41115;SDS011;26861;51.824;4.682;2023-03-14T13:19:26;3.40;;;1.20;;
41115;SDS011;26861;51.824;4.682;2023-03-14T13:21:59;6.45;;;1.73;;
41115;SDS011;26861;51.824;4.682;2023-03-14T13:24:28;4.07;;;1.35;;
41115;SDS011;26861;51.824;4.682;2023-03-14T13:26:58;3.40;;;0.97;;
41115;SDS011;26861;51.824;4.682;2023-03-14T13:29:24;4.35;;;1.30;;
41115;SDS011;26861;51.824;4.682;2023-03-14T13:31:53;6.68;;;1.52;;
41115;SDS011;26861;51.824;4.682;2023-03-14T13:34:24;3.30;;;0.90;;
41115;SDS011;26861;51.824;4.682;2023-03-14T13:36:59;2.67;;;1.02;;
41115;SDS011;26861;51.824;4.682;2023-03-14T13:39:27;2.90;;;0.93;;
41115;SDS011;26861;51.824;4.682;2023-03-14T13:41:54;4.13;;;1.02;;
41115;SDS011;26861;51.824;4.682;2023-03-14T13:44:56;3.15;;;0.90;;
41115;SDS011;26861;51.824;4.682;2023-03-14T13:47:17;6.32;;;1.00;;
41115;SDS011;26861;51.824;4.682;2023-03-14T13:49:45;3.67;;;1.10;;
41115;SDS011;26861;51.824;4.682;2023-03-14T13:52:28;4.68;;;1.05;;
41115;SDS011;26861;51.824;4.682;2023-03-14T13:54:56;3.10;;;0.90;;
41115;SDS011;26861;51.824;4.682;2023-03-14T13:57:22;3.80;;;0.95;;
41115;SDS011;26861;51.824;4.682;2023-03-14T14:02:51;3.40;;;1.08;;
41115;SDS011;26861;51.824;4.682;2023-03-14T14:05:22;2.63;;;0.80;;
41115;SDS011;26861;51.824;4.682;2023-03-14T14:07:51;3.25;;;1.13;;
41115;SDS011;26861;51.824;4.682;2023-03-14T14:10:17;5.47;;;1.13;;
41115;SDS011;26861;51.824;4.682;2023-03-14T14:12:53;6.57;;;0.93;;
41115;SDS011;26861;51.824;4.682;2023-03-14T14:15:28;5.07;;;1.02;;
41115;SDS011;26861;51.824;4.682;2023-03-14T14:17:58;4.07;;;1.23;;
41115;SDS011;26861;51.824;4.682;2023-03-14T14:20:34;4.18;;;1.00;;
41115;SDS011;26861;51.824;4.682;2023-03-14T14:23:01;5.45;;;1.17;;
41115;SDS011;26861;51.824;4.682;2023-03-14T14:25:29;4.75;;;1.25;;
41115;SDS011;26861;51.824;4.682;2023-03-14T14:27:56;3.05;;;0.90;;
41115;SDS011;26861;51.824;4.682;2023-03-14T14:30:29;4.47;;;1.20;;
41115;SDS011;26861;51.824;4.682;2023-03-14T14:33:12;4.03;;;1.10;;
41115;SDS011;26861;51.824;4.682;2023-03-14T14:38:22;5.30;;;1.30;;
41115;SDS011;26861;51.824;4.682;2023-03-14T14:40:49;5.28;;;1.35;;
41115;SDS011;26861;51.824;4.682;2023-03-14T14:43:22;5.50;;;0.93;;
41115;SDS011;26861;51.824;4.682;2023-03-14T14:45:52;3.70;;;1.38;;
41115;SDS011;26861;51.824;4.682;2023-03-14T14:48:21;3.38;;;0.93;;
41115;SDS011;26861;51.824;4.682;2023-03-14T14:50:59;5.75;;;0.98;;
41115;SDS011;26861;51.824;4.682;2023-03-14T14:53:30;5.57;;;1.38;;
41115;SDS011;26861;51.824;4.682;2023-03-14T14:56:15;3.40;;;0.90;;
41115;SDS011;26861;51.824;4.682;2023-03-14T14:58:46;3.80;;;1.00;;
41115;SDS011;26861;51.824;4.682;2023-03-14T15:01:16;3.17;;;1.00;;
41115;SDS011;26861;51.824;4.682;2023-03-14T15:03:44;2.70;;;0.90;;
41115;SDS011;26861;51.824;4.682;2023-03-14T15:06:12;2.85;;;1.00;;
41115;SDS011;26861;51.824;4.682;2023-03-14T15:08:39;3.72;;;1.15;;
41115;SDS011;26861;51.824;4.682;2023-03-14T15:11:05;4.63;;;1.30;;
41115;SDS011;26861;51.824;4.682;2023-03-14T15:13:31;2.60;;;0.70;;
41115;SDS011;26861;51.824;4.682;2023-03-14T15:15:57;3.47;;;0.73;;
41115;SDS011;26861;51.824;4.682;2023-03-14T15:18:24;2.55;;;0.80;;
41115;SDS011;26861;51.824;4.682;2023-03-14T15:20:51;3.58;;;0.70;;
41115;SDS011;26861;51.824;4.682;2023-03-14T15:23:18;2.13;;;0.73;;
41115;SDS011;26861;51.824;4.682;2023-03-14T15:25:45;1.88;;;0.77;;
41115;SDS011;26861;51.824;4.682;2023-03-14T15:28:16;2.35;;;0.82;;
41115;SDS011;26861;51.824;4.682;2023-03-14T15:30:49;2.53;;;1.15;;
41115;SDS011;26861;51.824;4.682;2023-03-14T15:33:16;3.20;;;0.73;;
41115;SDS011;26861;51.824;4.682;2023-03-14T15:35:43;5.25;;;0.88;;
41115;SDS011;26861;51.824;4.682;2023-03-14T15:38:09;1.80;;;0.82;;
41115;SDS011;26861;51.824;4.682;2023-03-14T15:40:37;3.55;;;0.80;;
41115;SDS011;26861;51.824;4.682;2023-03-14T15:43:03;2.70;;;0.80;;
41115;SDS011;26861;51.824;4.682;2023-03-14T15:45:29;2.90;;;0.65;;
41115;SDS011;26861;51.824;4.682;2023-03-14T15:47:55;4.45;;;0.98;;
41115;SDS011;26861;51.824;4.682;2023-03-14T15:50:20;4.63;;;1.10;;
41115;SDS011;26861;51.824;4.682;2023-03-14T15:52:47;3.50;;;0.90;;
41115;SDS011;26861;51.824;4.682;2023-03-14T15:55:13;1.98;;;0.55;;
41115;SDS011;26861;51.824;4.682;2023-03-14T15:57:40;1.90;;;0.82;;
41115;SDS011;26861;51.824;4.682;2023-03-14T16:00:09;2.67;;;0.70;;
41115;SDS011;26861;51.824;4.682;2023-03-14T16:02:39;2.40;;;1.00;;
41115;SDS011;26861;51.824;4.682;2023-03-14T16:05:07;2.65;;;0.70;;
41115;SDS011;26861;51.824;4.682;2023-03-14T16:07:34;2.00;;;0.60;;
41115;SDS011;26861;51.824;4.682;2023-03-14T16:09:59;3.42;;;0.70;;
41115;SDS011;26861;51.824;4.682;2023-03-14T16:12:25;2.85;;;0.55;;
41115;SDS011;26861;51.824;4.682;2023-03-14T16:14:51;3.15;;;0.90;;
41115;SDS011;26861;51.824;4.682;2023-03-14T16:17:16;3.08;;;0.98;;
41115;SDS011;26861;51.824;4.682;2023-03-14T16:19:42;2.58;;;0.80;;
41115;SDS011;26861;51.824;4.682;2023-03-14T16:22:07;2.60;;;0.65;;
41115;SDS011;26861;51.824;4.682;2023-03-14T16:24:33;2.55;;;0.77;;
41115;SDS011;26861;51.824;4.682;2023-03-14T16:26:59;2.70;;;0.90;;
41115;SDS011;26861;51.824;4.682;2023-03-14T16:29:25;1.83;;;0.82;;
41115;SDS011;26861;51.824;4.682;2023-03-14T16:31:51;1.67;;;0.68;;
41115;SDS011;26861;51.824;4.682;2023-03-14T16:34:17;2.05;;;0.80;;
41115;SDS011;26861;51.824;4.682;2023-03-14T16:36:43;2.47;;;0.77;;